createdAt,value
2018-05-26T00:00:49.771Z,102091.95
2018-05-26T00:03:18.105Z,102096.19
2018-05-26T00:05:46.528Z,102097.69
2018-05-26T00:08:14.979Z,102093.78
2018-05-26T00:10:43.321Z,102092.27
2018-05-26T00:13:11.711Z,102091.57
2018-05-26T00:15:40.232Z,102092.92
2018-05-26T00:18:08.558Z,102089.28
2018-05-26T00:20:36.909Z,102089.37
2018-05-26T00:23:06.023Z,102090.23
2018-05-26T00:25:34.429Z,102096.59
2018-05-26T00:28:02.695Z,102097.98
2018-05-26T00:30:31.061Z,102101.33
2018-05-26T00:32:59.496Z,102107.13
2018-05-26T00:35:27.922Z,102092.51
2018-05-26T00:37:56.347Z,102093.14
2018-05-26T00:40:24.678Z,102090.51
2018-05-26T00:42:52.983Z,102091.16
2018-05-26T00:45:21.844Z,102095.34
2018-05-26T00:47:50.162Z,102099.58
2018-05-26T00:50:18.581Z,102093.20
2018-05-26T00:52:46.938Z,102098.09
2018-05-26T00:55:15.347Z,102096.31
2018-05-26T00:57:43.778Z,102098.62
2018-05-26T01:00:13.143Z,102096.69
2018-05-26T01:02:41.528Z,102092.92
2018-05-26T01:05:09.876Z,102093.30
2018-05-26T01:07:39.129Z,102089.92
2018-05-26T01:10:07.509Z,102100.59
2018-05-26T01:12:35.858Z,102099.68
2018-05-26T01:15:05.114Z,102101.17
2018-05-26T01:17:33.450Z,102099.78
2018-05-26T01:20:01.793Z,102091.89
2018-05-26T01:22:30.289Z,102091.81
2018-05-26T01:24:58.667Z,102092.30
2018-05-26T01:27:26.977Z,102096.17
2018-05-26T01:29:56.281Z,102083.66
2018-05-26T01:32:24.601Z,102088.55
2018-05-26T01:34:52.918Z,102089.61
2018-05-26T01:37:21.319Z,102086.92
2018-05-26T01:39:49.661Z,102085.73
2018-05-26T01:42:18.008Z,102085.00
2018-05-26T01:44:46.415Z,102086.06
2018-05-26T01:47:14.764Z,102083.53
2018-05-26T01:49:43.144Z,102082.84
2018-05-26T01:52:13.347Z,102072.02
2018-05-26T01:54:41.967Z,102078.58
2018-05-26T01:57:10.366Z,102080.06
2018-05-26T01:59:38.745Z,102075.81
2018-05-26T02:02:07.378Z,102079.16
2018-05-26T02:04:35.772Z,102081.98
2018-05-26T02:07:04.898Z,102075.50
2018-05-26T02:09:33.279Z,102078.11
2018-05-26T02:12:01.613Z,102074.60
2018-05-26T02:14:30.310Z,102077.91
2018-05-26T02:16:58.633Z,102069.09
2018-05-26T02:19:26.964Z,102074.69
2018-05-26T02:21:55.319Z,102079.19
2018-05-26T02:24:23.660Z,102077.53
2018-05-26T02:26:51.981Z,102076.80
2018-05-26T02:29:20.967Z,102077.30
2018-05-26T02:31:49.293Z,102085.39
2018-05-26T02:34:17.657Z,102089.66
2018-05-26T02:36:46.850Z,102079.77
2018-05-26T02:39:15.205Z,102085.19
2018-05-26T02:41:43.589Z,102085.83
2018-05-26T02:44:12.012Z,102089.17
2018-05-26T02:46:40.391Z,102085.30
2018-05-26T02:49:08.845Z,102082.38
2018-05-26T02:51:37.886Z,102087.80
2018-05-26T02:54:06.399Z,102087.37
2018-05-26T02:56:34.776Z,102083.30
2018-05-26T02:59:04.002Z,102074.55
2018-05-26T03:01:32.348Z,102075.98
2018-05-26T03:04:00.140Z,102077.25
2018-05-26T03:06:34.226Z,102078.38
2018-05-26T03:09:08.203Z,102073.22
2018-05-26T03:11:42.384Z,102081.61
2018-05-26T03:14:16.530Z,102075.06
2018-05-26T03:16:47.748Z,102074.35
2018-05-26T03:19:16.066Z,102074.98
2018-05-26T03:21:44.462Z,102075.19
2018-05-26T03:24:12.826Z,102073.25
2018-05-26T03:26:41.293Z,102073.55
2018-05-26T03:29:09.645Z,102075.78
2018-05-26T03:31:38.248Z,102078.95
2018-05-26T03:34:06.592Z,102087.99
2018-05-26T03:36:34.913Z,102075.70
2018-05-26T03:39:03.269Z,102090.91
2018-05-26T03:41:31.601Z,102092.05
2018-05-26T03:43:59.946Z,102099.92
2018-05-26T03:46:28.316Z,102095.56
2018-05-26T03:48:56.662Z,102095.98
2018-05-26T03:51:24.952Z,102089.00
2018-05-26T03:53:53.317Z,102083.66
2018-05-26T03:56:34.525Z,102081.98
2018-05-26T03:59:14.728Z,102086.59
2018-05-26T04:01:43.063Z,102087.20
2018-05-26T04:04:11.438Z,102088.86
2018-05-26T04:06:39.800Z,102091.97
2018-05-26T04:09:08.170Z,102096.61
2018-05-26T04:11:36.508Z,102092.91
2018-05-26T04:14:05.742Z,102091.52
2018-05-26T04:16:34.076Z,102097.27
2018-05-26T04:19:02.401Z,102103.66
2018-05-26T04:21:30.781Z,102102.42
2018-05-26T04:23:59.109Z,102102.02
2018-05-26T04:26:27.500Z,102107.16
2018-05-26T04:28:55.842Z,102097.94
2018-05-26T04:31:24.199Z,102102.12
2018-05-26T04:33:52.525Z,102107.06
2018-05-26T04:36:20.982Z,102106.36
2018-05-26T04:38:49.281Z,102105.92
2018-05-26T04:41:17.579Z,102109.80
2018-05-26T04:43:45.935Z,102110.14
2018-05-26T04:46:14.262Z,102114.09
2018-05-26T04:48:42.641Z,102106.84
2018-05-26T04:51:11.048Z,102112.77
2018-05-26T04:53:39.443Z,102113.13
2018-05-26T04:56:07.776Z,102110.17
2018-05-26T04:58:36.217Z,102105.22
2018-05-26T05:01:04.588Z,102105.39
2018-05-26T05:03:32.912Z,102107.31
2018-05-26T05:06:02.605Z,102115.16
2018-05-26T05:08:31.060Z,102112.41
2018-05-26T05:10:59.372Z,102105.90
2018-05-26T05:13:28.078Z,102109.22
2018-05-26T05:15:56.381Z,102108.95
2018-05-26T05:18:24.941Z,102101.92
2018-05-26T05:20:53.295Z,102100.34
2018-05-26T05:23:21.618Z,102105.39
2018-05-26T05:25:50.123Z,102105.42
2018-05-26T05:28:18.749Z,102109.39
2018-05-26T05:30:47.203Z,102109.66
2018-05-26T05:33:15.708Z,102113.19
2018-05-26T05:35:44.492Z,102111.67
2018-05-26T05:38:12.876Z,102117.94
2018-05-26T05:40:41.306Z,102119.28
2018-05-26T05:43:09.766Z,102122.06
2018-05-26T05:45:39.044Z,102125.25
2018-05-26T05:48:07.409Z,102119.97
2018-05-26T05:50:35.864Z,102127.02
2018-05-26T05:53:04.210Z,102130.84
2018-05-26T05:55:32.547Z,102122.96
2018-05-26T05:58:01.285Z,102124.13
2018-05-26T06:00:29.621Z,102121.20
2018-05-26T06:02:57.995Z,102127.67
2018-05-26T06:05:26.374Z,102126.27
2018-05-26T06:07:54.714Z,102122.96
2018-05-26T06:10:23.094Z,102122.66
2018-05-26T06:12:51.730Z,102126.25
2018-05-26T06:15:20.064Z,102131.25
2018-05-26T06:17:48.461Z,102131.55
2018-05-26T06:20:16.985Z,102132.19
2018-05-26T06:22:45.338Z,102128.59
2018-05-26T06:25:13.708Z,102125.09
2018-05-26T06:27:42.599Z,102122.39
2018-05-26T06:30:10.985Z,102124.78
2018-05-26T06:32:39.397Z,102123.42
2018-05-26T06:35:07.875Z,102125.17
2018-05-26T06:37:36.236Z,102122.45
2018-05-26T06:40:04.633Z,102140.75
2018-05-26T06:42:33.540Z,102131.69
2018-05-26T06:45:01.860Z,102137.32
2018-05-26T06:47:30.299Z,102131.43
2018-05-26T06:49:59.151Z,102128.30
2018-05-26T06:52:27.466Z,102123.27
2018-05-26T06:54:55.843Z,102127.97
2018-05-26T06:57:24.183Z,102120.50
2018-05-26T06:59:52.522Z,102119.69
2018-05-26T07:02:20.857Z,102127.54
2018-05-26T07:04:49.239Z,102119.14
2018-05-26T07:07:17.619Z,102121.65
2018-05-26T07:09:45.984Z,102123.84
2018-05-26T07:12:14.460Z,102114.77
2018-05-26T07:14:42.845Z,102119.50
2018-05-26T07:17:11.249Z,102127.12
2018-05-26T07:19:39.938Z,102129.05
2018-05-26T07:22:08.306Z,102136.56
2018-05-26T07:24:36.715Z,102142.00
2018-05-26T07:27:05.034Z,102152.44
2018-05-26T07:29:33.375Z,102150.86
2018-05-26T07:32:01.697Z,102151.48
2018-05-26T07:34:31.278Z,102150.80
2018-05-26T07:37:00.221Z,102155.55
2018-05-26T07:39:28.565Z,102151.81
2018-05-26T07:41:56.924Z,102152.91
2018-05-26T07:44:25.264Z,102152.39
2018-05-26T07:46:53.591Z,102150.86
2018-05-26T07:49:21.962Z,102146.59
2018-05-26T07:51:50.370Z,102157.57
2018-05-26T07:54:18.699Z,102155.95
2018-05-26T07:56:47.082Z,102156.56
2018-05-26T07:59:15.416Z,102158.04
2018-05-26T08:01:43.799Z,102159.27
2018-05-26T08:04:12.379Z,102155.77
2018-05-26T08:06:40.927Z,102153.39
2018-05-26T08:09:09.521Z,102161.10
2018-05-26T08:11:38.684Z,102155.37
2018-05-26T08:14:07.019Z,102157.72
2018-05-26T08:16:35.357Z,102153.05
2018-05-26T08:19:03.893Z,102149.10
2018-05-26T08:21:32.666Z,102160.58
2018-05-26T08:24:00.974Z,102160.98
2018-05-26T08:26:30.159Z,102160.77
2018-05-26T08:28:58.566Z,102166.70
2018-05-26T08:31:26.859Z,102158.21
2018-05-26T08:33:55.281Z,102162.32
2018-05-26T08:36:23.675Z,102161.27
2018-05-26T08:38:51.992Z,102158.86
2018-05-26T08:41:20.374Z,102163.48
2018-05-26T08:43:48.733Z,102166.53
2018-05-26T08:46:17.276Z,102163.22
2018-05-26T08:48:45.816Z,102160.38
2018-05-26T08:51:14.154Z,102156.19
2018-05-26T08:53:42.537Z,102171.82
2018-05-26T08:56:12.161Z,102169.05
2018-05-26T08:58:40.540Z,102166.75
2018-05-26T09:01:08.899Z,102166.00
2018-05-26T09:03:37.580Z,102169.63
2018-05-26T09:06:05.905Z,102169.34
2018-05-26T09:08:34.283Z,102173.59
2018-05-26T09:11:02.601Z,102165.08
2018-05-26T09:13:30.927Z,102177.22
2018-05-26T09:15:59.225Z,102169.99
2018-05-26T09:18:27.847Z,102173.61
2018-05-26T09:20:56.146Z,102175.84
2018-05-26T09:23:24.491Z,102172.41
2018-05-26T09:25:52.857Z,102176.41
2018-05-26T09:28:21.228Z,102170.19
2018-05-26T09:30:49.645Z,102175.38
2018-05-26T09:33:18.787Z,102164.98
2018-05-26T09:35:47.125Z,102165.16
2018-05-26T09:38:15.465Z,102156.23
2018-05-26T09:40:44.566Z,102157.82
2018-05-26T09:43:12.939Z,102152.43
2018-05-26T09:45:41.254Z,102143.84
2018-05-26T09:48:09.761Z,102139.95
2018-05-26T09:50:38.940Z,102142.28
2018-05-26T09:53:07.265Z,102146.56
2018-05-26T09:55:36.181Z,102144.73
2018-05-26T09:58:04.498Z,102149.09
2018-05-26T10:00:32.818Z,102142.62
2018-05-26T10:03:01.915Z,102148.14
2018-05-26T10:05:30.220Z,102149.45
2018-05-26T10:07:58.519Z,102153.72
2018-05-26T10:10:26.873Z,102152.23
2018-05-26T10:12:55.183Z,102151.11
2018-05-26T10:15:23.511Z,102153.13
2018-05-26T10:17:52.342Z,102158.48
2018-05-26T10:20:21.357Z,102152.19
2018-05-26T10:22:49.697Z,102164.63
2018-05-26T10:25:19.037Z,102152.55
2018-05-26T10:27:47.555Z,102155.19
2018-05-26T10:30:15.922Z,102157.79
2018-05-26T10:32:44.324Z,102156.80
2018-05-26T10:35:12.652Z,102155.86
2018-05-26T10:37:40.994Z,102150.95
2018-05-26T10:40:09.414Z,102154.92
2018-05-26T10:42:37.796Z,102159.33
2018-05-26T10:45:06.101Z,102157.62
2018-05-26T10:47:34.650Z,102153.30
2018-05-26T10:50:03.012Z,102160.44
2018-05-26T10:52:31.380Z,102164.63
2018-05-26T10:54:59.960Z,102158.55
2018-05-26T10:57:28.314Z,102162.97
2018-05-26T10:59:56.647Z,102155.91
2018-05-26T11:02:25.590Z,102158.64
2018-05-26T11:04:53.912Z,102154.06
2018-05-26T11:07:22.248Z,102157.87
2018-05-26T11:09:50.657Z,102159.56
2018-05-26T11:12:19.001Z,102153.41
2018-05-26T11:14:47.340Z,102164.95
2018-05-26T11:17:15.848Z,102167.91
2018-05-26T11:19:44.197Z,102165.81
2018-05-26T11:22:12.569Z,102155.53
2018-05-26T11:24:43.031Z,102162.94
2018-05-26T11:27:11.335Z,102172.19
2018-05-26T11:29:39.819Z,102178.46
2018-05-26T11:32:08.368Z,102170.70
2018-05-26T11:34:36.688Z,102170.59
2018-05-26T11:37:04.994Z,102172.21
2018-05-26T11:39:33.711Z,102172.37
2018-05-26T11:42:02.050Z,102175.41
2018-05-26T11:44:30.388Z,102177.21
2018-05-26T11:46:59.382Z,102168.22
2018-05-26T11:49:27.782Z,102179.44
2018-05-26T11:51:56.065Z,102165.36
2018-05-26T11:54:24.651Z,102159.03
2018-05-26T11:56:52.974Z,102163.86
2018-05-26T11:59:21.361Z,102158.23
2018-05-26T12:01:49.844Z,102154.95
2018-05-26T12:04:18.193Z,102155.77
2018-05-26T12:06:46.596Z,102158.26
2018-05-26T12:09:15.180Z,102152.17
2018-05-26T12:11:43.530Z,102148.11
2018-05-26T12:14:11.917Z,102155.67
2018-05-26T12:16:41.109Z,102159.78
2018-05-26T12:19:09.438Z,102167.98
2018-05-26T12:21:37.763Z,102176.42
2018-05-26T12:24:06.189Z,102170.77
2018-05-26T12:26:34.518Z,102173.81
2018-05-26T12:29:02.868Z,102167.57
2018-05-26T12:31:32.047Z,102168.34
2018-05-26T12:34:00.416Z,102177.42
2018-05-26T12:36:28.681Z,102179.88
2018-05-26T12:38:57.402Z,102170.00
2018-05-26T12:41:25.808Z,102166.93
2018-05-26T12:43:54.136Z,102167.91
2018-05-26T12:46:23.084Z,102169.11
2018-05-26T12:48:51.385Z,102168.73
2018-05-26T12:51:19.736Z,102159.91
2018-05-26T12:53:48.114Z,102159.94
2018-05-26T12:56:16.503Z,102164.42
2018-05-26T12:58:44.824Z,102160.45
2018-05-26T13:01:13.254Z,102160.82
2018-05-26T13:03:41.615Z,102163.10
2018-05-26T13:06:10.043Z,102154.28
2018-05-26T13:08:39.102Z,102156.38
2018-05-26T13:11:07.430Z,102149.16
2018-05-26T13:13:35.763Z,102153.38
2018-05-26T13:16:04.090Z,102146.14
2018-05-26T13:18:32.408Z,102151.73
2018-05-26T13:21:00.719Z,102154.73
2018-05-26T13:23:29.064Z,102155.95
2018-05-26T13:25:58.334Z,102155.14
2018-05-26T13:28:26.677Z,102154.29
2018-05-26T13:30:55.085Z,102153.24
2018-05-26T13:33:23.417Z,102160.36
2018-05-26T13:35:51.854Z,102150.81
2018-05-26T13:38:20.377Z,102149.58
2018-05-26T13:40:48.793Z,102150.83
2018-05-26T13:43:17.148Z,102142.05
2018-05-26T13:45:46.360Z,102145.32
2018-05-26T13:48:14.755Z,102154.37
2018-05-26T13:50:43.137Z,102149.39
2018-05-26T13:53:11.709Z,102143.97
2018-05-26T13:55:39.957Z,102144.48
2018-05-26T13:58:09.236Z,102145.06
2018-05-26T14:00:38.557Z,102133.94
2018-05-26T14:03:06.899Z,102131.31
2018-05-26T14:05:35.214Z,102132.76
2018-05-26T14:08:04.413Z,102125.88
2018-05-26T14:10:32.698Z,102128.63
2018-05-26T14:13:01.009Z,102137.77
2018-05-26T14:15:29.435Z,102135.06
2018-05-26T14:17:57.751Z,102142.11
2018-05-26T14:20:26.085Z,102138.41
2018-05-26T14:22:54.437Z,102134.56
2018-05-26T14:25:23.011Z,102134.46
2018-05-26T14:27:51.338Z,102131.48
2018-05-26T14:30:20.109Z,102135.95
2018-05-26T14:32:48.458Z,102132.88
2018-05-26T14:35:16.826Z,102138.09
2018-05-26T14:37:45.185Z,102149.96
2018-05-26T14:40:13.531Z,102142.61
2018-05-26T14:42:41.915Z,102135.48
2018-05-26T14:45:11.125Z,102137.74
2018-05-26T14:47:39.482Z,102136.49
2018-05-26T14:50:08.063Z,102135.84
2018-05-26T14:52:36.387Z,102136.88
2018-05-26T14:55:04.737Z,102134.57
2018-05-26T14:57:33.965Z,102137.73
2018-05-26T15:00:02.301Z,102140.19
2018-05-26T15:02:30.687Z,102142.03
2018-05-26T15:05:01.536Z,102137.66
2018-05-26T15:07:30.864Z,102132.91
2018-05-26T15:09:59.197Z,102132.31
2018-05-26T15:12:30.834Z,102139.44
2018-05-26T15:14:59.324Z,102133.39
2018-05-26T15:17:28.132Z,102134.67
2018-05-26T15:19:56.463Z,102133.77
2018-05-26T15:22:24.793Z,102137.52
2018-05-26T15:24:53.123Z,102121.72
2018-05-26T15:27:21.444Z,102126.39
2018-05-26T15:36:52.838Z,102123.17
2018-05-26T15:39:23.163Z,102126.84
2018-05-26T15:42:04.139Z,102119.73
2018-05-26T15:44:34.481Z,102118.30
2018-05-26T15:47:10.711Z,102120.31
2018-05-26T15:49:48.952Z,102116.23
2018-05-26T15:52:28.677Z,102115.77
2018-05-26T16:08:54.072Z,102108.88
2018-05-26T16:17:33.241Z,102113.70
